Time;durP1;ratioP1;P1;durP2;ratioP2;P2;SDS_P1;SDS_P2;PMS_P1;PMS_P2;Temp;Humidity;BMP_temperature;BMP_pressure;BME280_temperature;BME280_humidity;BME280_pressure;Samples;Min_cycle;Max_cycle;Signal;HPM_P1;HPM_P2
2023/05/22 00:01:41;;;;;;;23.17;16.98;;;;;;;;;;5073380;28;20315;-60
2023/05/22 00:04:07;;;;;;;23.23;17.23;;;;;;;;;;5063105;28;20044;-62
2023/05/22 00:06:32;;;;;;;21.77;17.20;;;;;;;;;;5064814;28;20546;-61
2023/05/22 00:08:58;;;;;;;22.63;17.08;;;;;;;;;;5071376;28;20523;-61
2023/05/22 00:11:24;;;;;;;23.92;17.63;;;;;;;;;;5072935;28;20040;-60
2023/05/22 00:13:50;;;;;;;24.70;17.08;;;;;;;;;;5073972;28;20029;-61
2023/05/22 00:16:15;;;;;;;24.63;17.80;;;;;;;;;;5070508;28;20103;-61
2023/05/22 00:18:41;;;;;;;24.67;18.13;;;;;;;;;;5068836;28;20209;-61
2023/05/22 00:21:07;;;;;;;25.40;18.05;;;;;;;;;;5071368;28;20091;-61
2023/05/22 00:23:33;;;;;;;26.02;18.98;;;;;;;;;;5070792;28;20078;-61
2023/05/22 00:25:58;;;;;;;26.63;18.05;;;;;;;;;;5073904;28;20358;-61
2023/05/22 00:28:25;;;;;;;28.83;19.10;;;;;;;;;;5072127;28;20526;-60
2023/05/22 00:30:50;;;;;;;27.27;18.85;;;;;;;;;;5069704;28;20028;-61
2023/05/22 00:33:16;;;;;;;26.67;19.10;;;;;;;;;;5072160;28;20322;-61
2023/05/22 00:35:41;;;;;;;27.23;18.23;;;;;;;;;;5066116;28;20056;-61
2023/05/22 00:38:07;;;;;;;26.95;18.45;;;;;;;;;;5062025;28;20119;-64
2023/05/22 00:40:32;;;;;;;26.75;18.25;;;;;;;;;;5070357;28;20062;-61
2023/05/22 00:42:58;;;;;;;28.98;18.48;;;;;;;;;;5070469;28;20123;-61
2023/05/22 00:45:23;;;;;;;25.88;18.83;;;;;;;;;;5071747;28;20098;-60
2023/05/22 00:47:49;;;;;;;26.08;18.20;;;;;;;;;;5071079;28;20120;-62
2023/05/22 00:50:15;;;;;;;25.92;17.95;;;;;;;;;;5071709;28;20038;-61
2023/05/22 00:52:42;;;;;;;27.40;18.23;;;;;;;;;;5070658;28;20059;-60
2023/05/22 00:55:09;;;;;;;28.52;19.23;;;;;;;;;;5056737;28;20035;-61
2023/05/22 00:57:37;;;;;;;27.27;18.35;;;;;;;;;;5071069;28;20028;-61
2023/05/22 01:00:07;;;;;;;26.05;18.35;;;;;;;;;;5071943;28;20478;-61
2023/05/22 01:02:33;;;;;;;28.98;18.95;;;;;;;;;;5072221;28;20040;-61
2023/05/22 01:04:58;;;;;;;26.02;18.13;;;;;;;;;;5069595;28;20370;-61
2023/05/22 01:07:24;;;;;;;26.30;17.90;;;;;;;;;;5068651;28;20514;-61
2023/05/22 01:09:51;;;;;;;27.42;18.10;;;;;;;;;;5071165;28;20029;-61
2023/05/22 01:12:39;;;;;;;27.85;18.30;;;;;;;;;;5071435;28;20111;-62
2023/05/22 01:15:17;;;;;;;24.90;17.77;;;;;;;;;;5025054;28;20076;-62
2023/05/22 01:18:03;;;;;;;24.70;17.42;;;;;;;;;;5070831;28;20040;-62
2023/05/22 01:20:39;;;;;;;27.30;19.15;;;;;;;;;;5068925;28;20472;-60
2023/05/22 01:23:35;;;;;;;27.60;18.08;;;;;;;;;;5069177;28;20072;-61
2023/05/22 01:26:39;;;;;;;25.70;18.42;;;;;;;;;;5052180;28;20028;-61
2023/05/22 01:29:14;;;;;;;28.75;18.98;;;;;;;;;;5063000;28;20048;-61
2023/05/22 01:31:41;;;;;;;26.20;18.02;;;;;;;;;;5052040;28;20028;-61
2023/05/22 01:34:10;;;;;;;26.60;18.92;;;;;;;;;;5069253;28;20145;-62
2023/05/22 01:36:37;;;;;;;30.55;19.20;;;;;;;;;;5070537;28;20465;-61
2023/05/22 01:39:04;;;;;;;29.40;18.58;;;;;;;;;;5070538;28;20158;-62
2023/05/22 01:41:31;;;;;;;29.50;19.05;;;;;;;;;;5070081;28;20025;-61
2023/05/22 01:43:57;;;;;;;25.48;17.90;;;;;;;;;;5070446;28;20342;-61
2023/05/22 01:46:27;;;;;;;26.95;18.40;;;;;;;;;;5070092;28;20035;-63
2023/05/22 01:48:53;;;;;;;26.45;17.98;;;;;;;;;;5068238;28;20024;-62
2023/05/22 01:51:42;;;;;;;28.27;18.02;;;;;;;;;;5071142;28;20033;-62
2023/05/22 01:54:22;;;;;;;26.77;17.98;;;;;;;;;;5060146;28;20044;-61
2023/05/22 01:57:01;;;;;;;26.17;17.73;;;;;;;;;;5065786;28;20710;-61
2023/05/22 01:59:44;;;;;;;25.67;17.65;;;;;;;;;;5071928;28;20089;-61
2023/05/22 02:02:12;;;;;;;25.98;17.42;;;;;;;;;;5069292;28;20119;-64
2023/05/22 02:04:41;;;;;;;26.80;17.60;;;;;;;;;;5067554;28;20056;-61
2023/05/22 02:07:09;;;;;;;24.38;17.58;;;;;;;;;;5071556;28;20029;-62
2023/05/22 02:09:37;;;;;;;26.00;18.05;;;;;;;;;;5066480;28;20055;-64
2023/05/22 02:12:03;;;;;;;26.98;17.23;;;;;;;;;;5070549;28;20039;-63
2023/05/22 02:14:29;;;;;;;30.08;17.75;;;;;;;;;;5070414;28;20032;-61
2023/05/22 02:16:55;;;;;;;27.88;17.48;;;;;;;;;;5070824;28;20028;-63
2023/05/22 02:19:21;;;;;;;25.30;17.65;;;;;;;;;;5068620;28;20036;-62
2023/05/22 02:21:46;;;;;;;26.48;17.52;;;;;;;;;;5069504;28;20024;-63
2023/05/22 02:24:12;;;;;;;25.80;16.73;;;;;;;;;;5070999;28;20043;-63
2023/05/22 02:26:38;;;;;;;22.33;16.73;;;;;;;;;;5069943;28;20465;-63
2023/05/22 02:29:04;;;;;;;23.65;16.75;;;;;;;;;;5065563;28;20040;-63
2023/05/22 02:31:29;;;;;;;24.73;16.75;;;;;;;;;;5051387;28;20033;-61
2023/05/22 02:33:55;;;;;;;22.23;15.88;;;;;;;;;;5052716;28;20036;-63
2023/05/22 02:36:21;;;;;;;23.67;16.13;;;;;;;;;;5070000;28;20025;-63
2023/05/22 02:38:47;;;;;;;24.80;16.45;;;;;;;;;;5068403;28;20032;-63
2023/05/22 02:41:12;;;;;;;23.48;16.02;;;;;;;;;;5070654;28;20078;-63
2023/05/22 02:43:38;;;;;;;23.65;16.67;;;;;;;;;;5068535;28;20079;-63
2023/05/22 02:46:04;;;;;;;23.90;16.65;;;;;;;;;;5070507;28;20434;-64
2023/05/22 02:48:30;;;;;;;28.17;17.20;;;;;;;;;;5070718;28;20085;-62
2023/05/22 02:50:55;;;;;;;22.48;16.67;;;;;;;;;;5060761;28;20068;-63
2023/05/22 02:53:21;;;;;;;25.27;16.73;;;;;;;;;;5067302;28;20028;-64
2023/05/22 02:55:47;;;;;;;22.30;16.60;;;;;;;;;;5066948;28;20067;-63
2023/05/22 02:58:13;;;;;;;24.73;17.10;;;;;;;;;;5069173;28;20036;-63
2023/05/22 03:00:39;;;;;;;23.13;16.13;;;;;;;;;;5063471;28;20024;-63
2023/05/22 03:03:05;;;;;;;24.35;16.80;;;;;;;;;;5070677;28;20473;-64
2023/05/22 03:05:31;;;;;;;26.75;16.80;;;;;;;;;;5067942;28;20064;-61
2023/05/22 03:07:57;;;;;;;23.90;17.13;;;;;;;;;;5069120;28;20064;-63
2023/05/22 03:10:23;;;;;;;23.48;17.05;;;;;;;;;;5068476;28;20079;-62
2023/05/22 03:12:50;;;;;;;23.30;16.75;;;;;;;;;;5070441;28;20028;-64
2023/05/22 03:15:16;;;;;;;26.40;17.85;;;;;;;;;;5067960;28;20060;-62
2023/05/22 03:17:42;;;;;;;27.45;16.45;;;;;;;;;;5068494;28;20082;-62
2023/05/22 03:20:08;;;;;;;24.92;17.13;;;;;;;;;;5072450;28;20045;-62
2023/05/22 03:22:33;;;;;;;26.38;18.40;;;;;;;;;;5072462;28;20110;-60
2023/05/22 03:24:58;;;;;;;26.65;17.73;;;;;;;;;;5067641;28;20032;-62
2023/05/22 03:27:24;;;;;;;23.65;17.15;;;;;;;;;;5073754;28;20107;-62
2023/05/22 03:29:50;;;;;;;25.08;17.27;;;;;;;;;;5070847;28;20480;-62
2023/05/22 03:32:16;;;;;;;23.98;17.00;;;;;;;;;;5072136;28;20043;-64
2023/05/22 03:34:42;;;;;;;25.52;17.00;;;;;;;;;;5071666;28;20422;-63
2023/05/22 03:37:08;;;;;;;25.52;17.77;;;;;;;;;;5070175;28;20044;-63
2023/05/22 03:39:33;;;;;;;25.25;17.17;;;;;;;;;;5070963;28;20048;-62
2023/05/22 03:42:00;;;;;;;25.95;18.08;;;;;;;;;;5069606;28;20389;-63
2023/05/22 03:44:25;;;;;;;25.95;17.55;;;;;;;;;;5057416;28;20488;-63
2023/05/22 03:46:51;;;;;;;27.10;18.60;;;;;;;;;;5073088;28;20036;-63
2023/05/22 03:49:16;;;;;;;24.02;17.50;;;;;;;;;;5069469;28;20419;-63
2023/05/22 03:51:41;;;;;;;25.88;17.63;;;;;;;;;;5071462;28;20029;-63
2023/05/22 03:54:07;;;;;;;24.50;17.35;;;;;;;;;;5073606;28;20526;-63
2023/05/22 03:56:33;;;;;;;26.77;17.83;;;;;;;;;;5074538;28;20029;-63
2023/05/22 03:58:59;;;;;;;29.63;18.08;;;;;;;;;;5068604;28;20064;-63
2023/05/22 04:01:25;;;;;;;27.40;18.92;;;;;;;;;;5063410;28;20067;-63
2023/05/22 04:03:51;;;;;;;25.15;18.20;;;;;;;;;;5068292;28;20028;-63
2023/05/22 04:06:16;;;;;;;28.48;18.88;;;;;;;;;;5068742;28;20163;-63
2023/05/22 04:08:41;;;;;;;26.52;18.08;;;;;;;;;;5063840;28;20031;-63
2023/05/22 04:11:07;;;;;;;25.60;17.88;;;;;;;;;;5067594;28;20119;-63
2023/05/22 04:13:32;;;;;;;27.52;17.98;;;;;;;;;;5070026;28;20427;-63
2023/05/22 04:15:58;;;;;;;25.52;17.40;;;;;;;;;;5072069;28;20152;-63
2023/05/22 04:18:23;;;;;;;25.58;17.45;;;;;;;;;;5072658;28;20039;-63
2023/05/22 04:20:50;;;;;;;26.67;17.92;;;;;;;;;;5070896;28;20045;-63
2023/05/22 04:23:16;;;;;;;28.05;17.95;;;;;;;;;;5068044;28;20036;-64
2023/05/22 04:25:42;;;;;;;25.55;18.23;;;;;;;;;;5063106;28;20097;-63
2023/05/22 04:28:08;;;;;;;23.55;17.05;;;;;;;;;;5071221;28;20032;-63
2023/05/22 04:30:35;;;;;;;27.95;17.75;;;;;;;;;;5072419;28;20028;-62
2023/05/22 04:33:01;;;;;;;29.65;18.48;;;;;;;;;;5071451;28;20078;-63
2023/05/22 04:35:28;;;;;;;25.73;17.33;;;;;;;;;;5073483;28;20389;-63
2023/05/22 04:37:54;;;;;;;25.05;18.05;;;;;;;;;;5068854;28;21857;-62
2023/05/22 04:40:20;;;;;;;25.95;18.38;;;;;;;;;;5072280;28;20122;-63
2023/05/22 04:42:45;;;;;;;26.35;18.95;;;;;;;;;;5068502;28;20052;-63
2023/05/22 04:45:12;;;;;;;23.80;17.90;;;;;;;;;;5069464;28;20062;-63
2023/05/22 04:47:40;;;;;;;23.58;17.48;;;;;;;;;;5073269;28;20040;-62
2023/05/22 04:50:06;;;;;;;25.33;17.67;;;;;;;;;;5071521;28;20101;-63
2023/05/22 04:52:31;;;;;;;25.42;18.52;;;;;;;;;;5071080;28;20090;-63
2023/05/22 04:54:56;;;;;;;25.83;18.13;;;;;;;;;;5070765;28;20032;-63
2023/05/22 04:57:24;;;;;;;23.08;17.15;;;;;;;;;;5071966;28;20696;-63
2023/05/22 04:59:50;;;;;;;24.83;18.15;;;;;;;;;;5067577;28;20400;-63
2023/05/22 05:02:16;;;;;;;24.73;17.92;;;;;;;;;;5064918;28;20037;-63
2023/05/22 05:04:42;;;;;;;25.63;18.65;;;;;;;;;;5070489;28;20038;-61
2023/05/22 05:07:08;;;;;;;23.50;18.02;;;;;;;;;;5071335;28;20068;-63
2023/05/22 05:09:33;;;;;;;25.98;18.27;;;;;;;;;;5072361;28;20115;-63
2023/05/22 05:11:58;;;;;;;22.80;16.42;;;;;;;;;;5067433;28;20268;-62
2023/05/22 05:14:24;;;;;;;21.98;17.10;;;;;;;;;;5066877;28;20025;-62
2023/05/22 05:16:53;;;;;;;24.55;17.85;;;;;;;;;;5072161;28;20531;-62
2023/05/22 05:19:20;;;;;;;21.98;17.23;;;;;;;;;;5071581;28;20029;-61
2023/05/22 05:21:48;;;;;;;23.77;17.45;;;;;;;;;;5070030;28;20035;-62
2023/05/22 05:24:14;;;;;;;24.42;17.48;;;;;;;;;;5070476;28;20047;-62
2023/05/22 05:26:39;;;;;;;24.10;18.15;;;;;;;;;;5070748;28;20077;-64
2023/05/22 05:29:05;;;;;;;25.55;17.02;;;;;;;;;;5072337;28;20028;-62
2023/05/22 05:31:31;;;;;;;23.42;17.42;;;;;;;;;;5069509;28;20369;-61
2023/05/22 05:33:57;;;;;;;23.88;17.50;;;;;;;;;;5072398;28;20488;-63
2023/05/22 05:36:23;;;;;;;24.08;16.95;;;;;;;;;;5082693;28;20032;-63
2023/05/22 05:38:48;;;;;;;20.67;16.65;;;;;;;;;;5091425;28;20039;-64
2023/05/22 05:41:14;;;;;;;22.65;16.98;;;;;;;;;;5083335;28;20150;-63
2023/05/22 05:43:39;;;;;;;21.92;17.00;;;;;;;;;;5051946;28;20053;-65
2023/05/22 05:46:05;;;;;;;24.13;17.90;;;;;;;;;;5058842;28;20516;-62
2023/05/22 05:48:30;;;;;;;27.80;16.95;;;;;;;;;;5072330;28;20029;-62
2023/05/22 05:50:56;;;;;;;24.05;16.90;;;;;;;;;;5065411;28;20086;-65
2023/05/22 05:53:21;;;;;;;23.10;16.70;;;;;;;;;;5069428;28;20465;-63
2023/05/22 05:55:47;;;;;;;23.00;16.70;;;;;;;;;;5068742;28;20085;-64
2023/05/22 05:58:12;;;;;;;23.10;17.55;;;;;;;;;;5072131;28;20028;-63
2023/05/22 06:00:37;;;;;;;23.80;17.27;;;;;;;;;;5069968;28;20374;-63
2023/05/22 06:03:03;;;;;;;23.73;16.75;;;;;;;;;;5068072;28;20929;-63
2023/05/22 06:05:28;;;;;;;21.80;16.58;;;;;;;;;;5068690;28;20032;-63
2023/05/22 06:07:56;;;;;;;22.13;17.25;;;;;;;;;;5070902;28;20416;-63
2023/05/22 06:10:22;;;;;;;22.23;17.10;;;;;;;;;;5071865;28;20033;-62
2023/05/22 06:12:48;;;;;;;23.35;17.30;;;;;;;;;;5071005;28;20118;-64
2023/05/22 06:15:13;;;;;;;23.52;17.10;;;;;;;;;;5071835;28;20035;-63
2023/05/22 06:17:38;;;;;;;23.02;16.65;;;;;;;;;;5070036;28;20029;-62
2023/05/22 06:20:05;;;;;;;23.67;17.67;;;;;;;;;;5066181;28;20036;-63
2023/05/22 06:22:31;;;;;;;22.55;17.67;;;;;;;;;;5068869;28;20361;-63
2023/05/22 06:24:56;;;;;;;23.13;16.98;;;;;;;;;;5067628;28;20049;-63
2023/05/22 06:27:22;;;;;;;23.60;17.25;;;;;;;;;;5071765;28;20055;-62
2023/05/22 06:29:49;;;;;;;23.45;15.82;;;;;;;;;;5070733;28;20033;-64
2023/05/22 06:32:14;;;;;;;21.50;16.60;;;;;;;;;;5069038;28;20128;-63
2023/05/22 06:34:40;;;;;;;21.00;16.50;;;;;;;;;;5071546;28;20116;-61
2023/05/22 06:37:06;;;;;;;22.05;15.30;;;;;;;;;;5070716;28;20158;-62
2023/05/22 06:39:31;;;;;;;20.38;15.15;;;;;;;;;;5067148;28;20122;-61
2023/05/22 06:41:57;;;;;;;20.00;15.95;;;;;;;;;;5061963;28;20036;-60
2023/05/22 06:44:24;;;;;;;21.15;15.40;;;;;;;;;;5070697;28;20090;-62
2023/05/22 06:46:50;;;;;;;20.52;15.63;;;;;;;;;;5068385;28;20029;-60
2023/05/22 06:49:16;;;;;;;22.42;16.05;;;;;;;;;;5071297;28;20024;-61
2023/05/22 06:51:42;;;;;;;20.58;15.10;;;;;;;;;;5071261;28;20029;-65
2023/05/22 06:54:08;;;;;;;18.55;14.77;;;;;;;;;;5074383;28;20040;-62
2023/05/22 06:56:33;;;;;;;22.33;15.27;;;;;;;;;;5073114;28;20119;-61
2023/05/22 06:58:59;;;;;;;18.88;15.25;;;;;;;;;;5071854;28;20112;-62
2023/05/22 07:01:24;;;;;;;20.88;15.75;;;;;;;;;;5068041;28;20048;-62
2023/05/22 07:03:50;;;;;;;19.67;15.32;;;;;;;;;;5073839;28;20041;-62
2023/05/22 07:06:15;;;;;;;21.40;15.95;;;;;;;;;;5067965;28;20055;-61
2023/05/22 07:08:40;;;;;;;22.45;16.00;;;;;;;;;;5055323;28;20454;-62
2023/05/22 07:11:07;;;;;;;19.17;15.73;;;;;;;;;;5066359;28;20032;-61
2023/05/22 07:13:32;;;;;;;22.40;15.93;;;;;;;;;;5074166;28;20495;-63
2023/05/22 07:15:58;;;;;;;20.50;16.15;;;;;;;;;;5074483;28;20032;-63
2023/05/22 07:18:23;;;;;;;20.95;16.33;;;;;;;;;;5075105;28;20157;-61
2023/05/22 07:20:49;;;;;;;22.08;15.75;;;;;;;;;;5070094;28;20032;-64
2023/05/22 07:23:14;;;;;;;22.20;15.07;;;;;;;;;;5074635;28;20093;-63
2023/05/22 07:25:41;;;;;;;22.23;15.52;;;;;;;;;;5074892;28;20035;-62
2023/05/22 07:28:07;;;;;;;22.65;16.20;;;;;;;;;;5071667;28;20849;-62
2023/05/22 07:30:37;;;;;;;21.38;15.35;;;;;;;;;;5074900;28;20086;-62
2023/05/22 07:33:02;;;;;;;22.33;16.27;;;;;;;;;;5073888;28;20055;-62
2023/05/22 07:35:28;;;;;;;21.02;15.60;;;;;;;;;;5072761;28;20649;-60
2023/05/22 07:37:53;;;;;;;20.50;15.75;;;;;;;;;;5072734;28;20040;-60
2023/05/22 07:40:18;;;;;;;20.40;15.98;;;;;;;;;;5074397;28;20106;-61
2023/05/22 07:42:44;;;;;;;20.92;17.05;;;;;;;;;;5073365;28;20040;-64
2023/05/22 07:45:09;;;;;;;21.85;15.65;;;;;;;;;;5074160;28;20108;-62
2023/05/22 07:47:35;;;;;;;19.02;15.38;;;;;;;;;;5072296;28;20043;-61
2023/05/22 07:50:03;;;;;;;19.63;16.05;;;;;;;;;;5069483;28;20109;-64
2023/05/22 07:52:29;;;;;;;22.55;16.25;;;;;;;;;;5069153;28;20047;-62
2023/05/22 07:54:54;;;;;;;21.25;15.50;;;;;;;;;;5063327;28;20104;-64
2023/05/22 07:57:21;;;;;;;20.95;15.90;;;;;;;;;;5070893;28;20128;-63
2023/05/22 07:59:47;;;;;;;19.75;15.82;;;;;;;;;;5054925;28;20381;-67
2023/05/22 08:02:13;;;;;;;22.08;16.55;;;;;;;;;;5062840;28;20115;-63
2023/05/22 08:04:38;;;;;;;21.40;15.55;;;;;;;;;;5073621;28;20392;-63
2023/05/22 08:07:05;;;;;;;19.45;15.30;;;;;;;;;;5070808;28;20124;-63
2023/05/22 08:09:30;;;;;;;21.05;15.93;;;;;;;;;;5068125;28;20373;-62
2023/05/22 08:11:55;;;;;;;20.35;15.68;;;;;;;;;;5073062;28;20036;-63
2023/05/22 08:14:21;;;;;;;19.02;15.35;;;;;;;;;;5072604;28;20383;-62
2023/05/22 08:16:47;;;;;;;21.88;16.92;;;;;;;;;;5070520;28;20033;-65
2023/05/22 08:19:12;;;;;;;25.60;19.13;;;;;;;;;;5054771;28;20402;-62
2023/05/22 08:21:37;;;;;;;28.17;20.55;;;;;;;;;;5056552;28;20036;-62
2023/05/22 08:24:03;;;;;;;26.38;19.42;;;;;;;;;;5071498;28;20040;-63
2023/05/22 08:26:28;;;;;;;28.48;20.52;;;;;;;;;;5069927;28;20381;-62
2023/05/22 08:28:53;;;;;;;26.23;20.10;;;;;;;;;;5071713;28;20029;-63
2023/05/22 08:31:19;;;;;;;26.88;20.73;;;;;;;;;;5071292;28;20075;-62
2023/05/22 08:33:45;;;;;;;27.90;20.10;;;;;;;;;;5072137;28;20036;-64
2023/05/22 08:36:11;;;;;;;28.48;20.40;;;;;;;;;;5072398;28;20090;-64
2023/05/22 08:38:37;;;;;;;26.60;19.60;;;;;;;;;;5073625;28;20457;-63
2023/05/22 08:41:05;;;;;;;24.65;19.90;;;;;;;;;;5072409;28;20052;-62
2023/05/22 08:43:30;;;;;;;28.23;19.77;;;;;;;;;;5070486;28;20120;-62
2023/05/22 08:46:02;;;;;;;23.05;17.42;;;;;;;;;;5069845;28;20107;-61
2023/05/22 08:48:32;;;;;;;23.13;17.25;;;;;;;;;;5070017;28;20044;-61
2023/05/22 08:51:02;;;;;;;22.08;17.00;;;;;;;;;;5054255;28;20045;-61
2023/05/22 08:53:30;;;;;;;23.58;17.38;;;;;;;;;;5053528;28;20029;-61
2023/05/22 08:55:56;;;;;;;23.00;17.40;;;;;;;;;;5052479;28;20037;-64
2023/05/22 08:58:21;;;;;;;23.80;17.23;;;;;;;;;;5053271;28;20041;-62
2023/05/22 09:00:47;;;;;;;23.48;16.95;;;;;;;;;;5052340;28;20033;-66
2023/05/22 09:03:14;;;;;;;23.08;16.98;;;;;;;;;;5052423;28;20082;-62
2023/05/22 09:05:40;;;;;;;20.80;16.48;;;;;;;;;;5067486;28;20059;-61
2023/05/22 09:08:09;;;;;;;17.75;15.13;;;;;;;;;;5072194;28;20072;-62
2023/05/22 09:10:35;;;;;;;22.63;15.82;;;;;;;;;;5072823;28;20032;-62
2023/05/22 09:13:08;;;;;;;19.27;15.23;;;;;;;;;;5071497;28;20036;-61
2023/05/22 09:15:37;;;;;;;20.58;16.42;;;;;;;;;;5071041;28;20389;-61
2023/05/22 09:18:04;;;;;;;20.83;16.85;;;;;;;;;;5072118;28;20440;-62
2023/05/22 09:20:36;;;;;;;19.85;15.68;;;;;;;;;;5062857;28;20028;-61
2023/05/22 09:23:11;;;;;;;20.52;14.90;;;;;;;;;;5052398;28;20039;-62
2023/05/22 09:25:36;;;;;;;17.40;14.15;;;;;;;;;;5057630;28;20089;-62
2023/05/22 09:28:03;;;;;;;18.85;14.73;;;;;;;;;;5067482;28;20033;-62
2023/05/22 09:30:32;;;;;;;20.50;14.48;;;;;;;;;;5072419;28;20122;-62
2023/05/22 09:32:58;;;;;;;17.80;13.53;;;;;;;;;;5066499;28;20044;-65
2023/05/22 09:35:26;;;;;;;20.40;14.18;;;;;;;;;;5062871;28;20258;-63
2023/05/22 09:37:52;;;;;;;19.42;15.20;;;;;;;;;;5070979;28;20025;-62
2023/05/22 09:40:17;;;;;;;16.27;13.77;;;;;;;;;;5066674;28;20094;-62
2023/05/22 09:42:46;;;;;;;19.20;13.75;;;;;;;;;;5064483;28;20109;-63
2023/05/22 09:45:12;;;;;;;19.20;14.63;;;;;;;;;;5071453;28;20436;-63
2023/05/22 09:47:37;;;;;;;17.85;14.45;;;;;;;;;;5071232;28;20470;-63
2023/05/22 09:50:05;;;;;;;18.60;14.48;;;;;;;;;;5069326;28;20384;-62
2023/05/22 09:52:36;;;;;;;19.08;15.35;;;;;;;;;;5071082;28;20381;-62
2023/05/22 09:55:03;;;;;;;21.02;15.50;;;;;;;;;;5071274;28;20021;-62
2023/05/22 09:57:34;;;;;;;17.90;14.60;;;;;;;;;;5071163;28;20064;-62
2023/05/22 10:00:03;;;;;;;17.52;14.85;;;;;;;;;;5071309;28;20078;-62
2023/05/22 10:02:29;;;;;;;17.23;14.73;;;;;;;;;;5066774;28;20043;-62
2023/05/22 10:04:56;;;;;;;20.25;16.40;;;;;;;;;;5070350;28;20473;-62
2023/05/22 10:07:24;;;;;;;19.92;16.02;;;;;;;;;;5072077;28;20032;-61
2023/05/22 10:09:55;;;;;;;20.48;17.00;;;;;;;;;;5070314;28;20036;-66
2023/05/22 10:12:22;;;;;;;;;;;;;;;;;;5072281;28;20465;-63
2023/05/22 10:14:47;;;;;;;19.13;16.33;;;;;;;;;;5070816;28;19916;-64
2023/05/22 10:17:15;;;;;;;21.45;16.10;;;;;;;;;;5070843;28;20035;-63
2023/05/22 10:19:42;;;;;;;20.02;16.88;;;;;;;;;;5068380;28;20047;-63
2023/05/22 10:22:10;;;;;;;19.77;16.77;;;;;;;;;;5069933;28;20033;-63
2023/05/22 10:24:36;;;;;;;19.92;17.05;;;;;;;;;;5071863;28;20123;-63
2023/05/22 10:27:03;;;;;;;21.05;16.88;;;;;;;;;;5070601;28;20028;-63
2023/05/22 10:29:37;;;;;;;18.98;16.52;;;;;;;;;;5070040;28;20482;-63
2023/05/22 10:32:13;;;;;;;23.35;17.48;;;;;;;;;;5069398;28;20480;-63
2023/05/22 10:34:48;;;;;;;21.65;17.80;;;;;;;;;;5058988;28;20033;-62
2023/05/22 10:37:47;;;;;;;22.05;17.08;;;;;;;;;;5062746;28;20032;-61
2023/05/22 10:40:18;;;;;;;20.20;16.08;;;;;;;;;;5060465;28;20044;-62
2023/05/22 10:42:44;;;;;;;20.52;17.15;;;;;;;;;;5062542;28;20063;-61
2023/05/22 10:45:12;;;;;;;22.10;16.88;;;;;;;;;;5071063;28;20725;-62
2023/05/22 10:47:37;;;;;;;20.35;16.15;;;;;;;;;;5071353;28;20031;-63
2023/05/22 10:50:07;;;;;;;20.55;16.65;;;;;;;;;;5070741;28;20029;-63
2023/05/22 10:52:34;;;;;;;18.50;15.85;;;;;;;;;;5069219;28;20024;-62
2023/05/22 10:55:00;;;;;;;19.00;16.08;;;;;;;;;;5070331;28;20410;-63
2023/05/22 10:57:32;;;;;;;18.42;15.55;;;;;;;;;;5071564;28;20029;-62
2023/05/22 11:00:11;;;;;;;20.98;15.43;;;;;;;;;;5070800;28;20036;-62
2023/05/22 11:02:44;;;;;;;19.90;14.63;;;;;;;;;;5071338;28;20040;-62
2023/05/22 11:05:21;;;;;;;19.45;15.07;;;;;;;;;;5067962;28;20036;-62
2023/05/22 11:07:47;;;;;;;18.50;15.05;;;;;;;;;;5071175;28;20029;-63
2023/05/22 11:10:13;;;;;;;19.90;15.57;;;;;;;;;;5063253;28;20037;-62
2023/05/22 11:12:40;;;;;;;18.58;14.57;;;;;;;;;;5050675;28;20040;-65
2023/05/22 11:15:07;;;;;;;16.67;14.27;;;;;;;;;;5053711;28;20033;-64
2023/05/22 11:17:50;;;;;;;17.92;14.63;;;;;;;;;;5059951;28;20452;-62
2023/05/22 11:20:24;;;;;;;20.00;14.50;;;;;;;;;;5070136;28;20043;-62
2023/05/22 11:22:57;;;;;;;17.60;14.60;;;;;;;;;;5054985;28;20032;-63
2023/05/22 11:25:23;;;;;;;17.20;13.90;;;;;;;;;;5051212;28;20035;-62
2023/05/22 11:27:48;;;;;;;16.98;14.38;;;;;;;;;;5064653;28;20120;-61
2023/05/22 11:30:15;;;;;;;14.93;13.05;;;;;;;;;;5067229;28;20642;-62
2023/05/22 11:32:43;;;;;;;15.48;13.65;;;;;;;;;;5070949;28;20068;-63
2023/05/22 11:35:17;;;;;;;17.73;14.60;;;;;;;;;;5070090;28;20096;-64
2023/05/22 11:37:43;;;;;;;19.55;15.80;;;;;;;;;;5069917;28;20048;-63
2023/05/22 11:40:09;;;;;;;16.50;13.80;;;;;;;;;;5072030;28;20129;-63
2023/05/22 11:42:36;;;;;;;15.52;13.93;;;;;;;;;;5074515;28;20025;-63
2023/05/22 11:45:03;;;;;;;17.48;15.07;;;;;;;;;;5073806;28;20044;-62
2023/05/22 11:47:29;;;;;;;16.95;13.50;;;;;;;;;;5070226;28;20135;-63
2023/05/22 11:50:00;;;;;;;14.82;13.18;;;;;;;;;;5072444;28;20509;-67
2023/05/22 11:52:32;;;;;;;18.10;14.30;;;;;;;;;;5072610;28;20052;-63
2023/05/22 11:54:57;;;;;;;21.58;16.33;;;;;;;;;;5070893;28;20044;-62
2023/05/22 11:57:23;;;;;;;17.77;15.45;;;;;;;;;;5074161;28;20040;-64
2023/05/22 11:59:48;;;;;;;15.95;13.95;;;;;;;;;;5072809;28;20033;-61
2023/05/22 12:02:18;;;;;;;16.58;13.55;;;;;;;;;;5073363;28;20048;-64
2023/05/22 12:04:43;;;;;;;16.83;15.03;;;;;;;;;;5074055;28;20036;-63
2023/05/22 12:07:09;;;;;;;16.95;15.15;;;;;;;;;;5072192;28;20033;-63
2023/05/22 12:09:37;;;;;;;19.08;15.90;;;;;;;;;;5074197;28;20024;-63
2023/05/22 12:12:02;;;;;;;17.52;14.68;;;;;;;;;;5073334;28;20024;-63
2023/05/22 12:14:30;;;;;;;20.00;15.23;;;;;;;;;;5071824;28;20037;-64
2023/05/22 12:17:00;;;;;;;21.77;17.27;;;;;;;;;;5072114;28;20036;-65
2023/05/22 12:19:26;;;;;;;18.70;16.70;;;;;;;;;;5071388;28;20392;-63
2023/05/22 12:21:52;;;;;;;22.67;18.40;;;;;;;;;;5071155;28;20507;-62
2023/05/22 12:24:22;;;;;;;23.00;18.10;;;;;;;;;;5073059;28;20056;-62
2023/05/22 12:26:55;;;;;;;24.15;17.58;;;;;;;;;;5074245;28;20040;-62
2023/05/22 12:29:24;;;;;;;26.00;20.92;;;;;;;;;;5071802;28;20425;-62
2023/05/22 12:31:50;;;;;;;23.42;20.00;;;;;;;;;;5071035;28;20039;-62
2023/05/22 12:34:17;;;;;;;26.55;19.30;;;;;;;;;;5066285;28;20032;-64
2023/05/22 12:36:45;;;;;;;21.55;17.77;;;;;;;;;;5066246;28;20041;-63
2023/05/22 12:39:15;;;;;;;23.65;19.67;;;;;;;;;;5072552;28;20113;-63
2023/05/22 12:41:41;;;;;;;21.73;19.02;;;;;;;;;;5073482;28;20028;-62
2023/05/22 12:44:06;;;;;;;22.42;18.48;;;;;;;;;;5072755;28;20063;-65
2023/05/22 12:46:33;;;;;;;23.83;19.35;;;;;;;;;;5070124;28;20445;-63
2023/05/22 12:48:59;;;;;;;21.10;18.55;;;;;;;;;;5069994;28;20055;-64
2023/05/22 12:51:28;;;;;;;20.25;18.05;;;;;;;;;;5073064;28;20437;-62
2023/05/22 12:53:55;;;;;;;22.77;20.35;;;;;;;;;;5072473;28;20035;-62
2023/05/22 12:56:21;;;;;;;21.67;18.58;;;;;;;;;;5072690;28;20035;-62
2023/05/22 12:58:46;;;;;;;22.35;18.83;;;;;;;;;;5073084;28;20032;-63
2023/05/22 13:01:12;;;;;;;22.55;17.77;;;;;;;;;;5070958;28;20166;-62
2023/05/22 13:03:37;;;;;;;21.33;19.05;;;;;;;;;;5067132;28;20054;-62
2023/05/22 13:06:02;;;;;;;23.40;19.00;;;;;;;;;;5051860;28;20397;-63
2023/05/22 13:08:28;;;;;;;21.27;18.15;;;;;;;;;;5056403;28;20031;-62
2023/05/22 13:10:53;;;;;;;19.75;17.65;;;;;;;;;;5072292;28;20098;-63
2023/05/22 13:13:19;;;;;;;23.70;19.50;;;;;;;;;;5071640;28;20036;-63
2023/05/22 13:15:44;;;;;;;21.60;19.30;;;;;;;;;;5071221;28;20440;-63
2023/05/22 13:18:10;;;;;;;22.60;18.52;;;;;;;;;;5072113;28;20029;-63
2023/05/22 13:20:37;;;;;;;22.67;20.27;;;;;;;;;;5072887;28;20028;-62
2023/05/22 13:23:03;;;;;;;20.88;18.35;;;;;;;;;;5070712;28;20028;-63
2023/05/22 13:25:28;;;;;;;20.30;16.85;;;;;;;;;;5067355;28;20115;-62
2023/05/22 13:27:53;;;;;;;19.67;17.33;;;;;;;;;;5070930;28;20063;-61
2023/05/22 13:30:19;;;;;;;19.58;17.33;;;;;;;;;;5071143;28;20070;-61
2023/05/22 13:32:44;;;;;;;19.00;15.57;;;;;;;;;;5072439;28;20426;-62
2023/05/22 13:35:10;;;;;;;17.92;15.93;;;;;;;;;;5070140;28;20040;-63
2023/05/22 13:37:35;;;;;;;19.85;16.42;;;;;;;;;;5072580;28;20028;-63
2023/05/22 13:40:01;;;;;;;19.67;17.38;;;;;;;;;;5064064;28;20060;-63
2023/05/22 13:42:27;;;;;;;22.02;19.63;;;;;;;;;;5072414;28;20032;-62
2023/05/22 13:44:52;;;;;;;21.63;17.05;;;;;;;;;;5065841;28;20032;-64
2023/05/22 13:47:17;;;;;;;22.02;18.55;;;;;;;;;;5051587;28;20035;-64
2023/05/22 13:49:44;;;;;;;21.02;17.63;;;;;;;;;;5052317;28;20456;-64
2023/05/22 13:52:09;;;;;;;20.40;18.23;;;;;;;;;;5051462;28;20497;-64
2023/05/22 13:54:35;;;;;;;17.02;13.70;;;;;;;;;;5052719;28;20033;-63
2023/05/22 13:57:01;;;;;;;21.05;13.50;;;;;;;;;;5063009;28;20029;-66
2023/05/22 13:59:27;;;;;;;19.92;16.70;;;;;;;;;;5072161;28;20112;-63
2023/05/22 14:01:52;;;;;;;13.85;12.30;;;;;;;;;;5071983;28;20032;-62
2023/05/22 14:04:18;;;;;;;13.75;11.95;;;;;;;;;;5071137;28;20175;-63
2023/05/22 14:06:43;;;;;;;16.23;13.60;;;;;;;;;;5071711;28;20035;-65
2023/05/22 14:09:18;;;;;;;18.98;16.50;;;;;;;;;;5068616;28;20503;-65
2023/05/22 14:11:44;;;;;;;19.27;15.52;;;;;;;;;;5066840;28;20031;-65
2023/05/22 14:14:09;;;;;;;19.08;15.05;;;;;;;;;;5070003;28;20040;-65
2023/05/22 14:16:35;;;;;;;17.98;14.82;;;;;;;;;;5071212;28;20032;-67
2023/05/22 14:19:00;;;;;;;17.67;14.73;;;;;;;;;;5058668;28;20028;-69